KBIX/BIX METAR and TAF weather

Enter ICAO airport designator
Station Type Date Time Source
KBIX METAR 2020/07/04 08:56 UTC NOAA

KBIX 040856Z AUTO 00000KT 10SM FEW230 24/23 A2987 RMK AO2 SLP118 T02430225 57007 $


Station Type Date Time Source
KBIX Decoded METAR 2020/07/04 08:56 UTC NOAA

Keesler Air Force Base / Biloxi, MS, United States (KBIX) 30-25N 088-55W
Jul 04, 2020 - 04:56 AM EDT / 2020.07.04 0856 UTC
Wind: Calm:0
Visibility: 10 mile(s):0
Sky conditions: mostly clear
Temperature: 75.7 F (24.3 C)
Dew Point: 72.5 F (22.5 C)
Relative Humidity: 89%
Pressure (altimeter): 29.87 in. Hg (1011 hPa)
Pressure tendency: 0.02 inches (0.7 hPa) lower than three hours ago
ob: KBIX 040856Z AUTO 00000KT 10SM FEW230 24/23 A2987 RMK AO2 SLP118 T02430225 57007
cycle: 9

Station Type Date Time Source
KBIX TAF 2020/07/03 02:07 UTC NOAA

TAF KBIX 030200Z 0302/0408 29006KT 9999 BKN040 QNH2989INS
BECMG 0317/0318 VRB06KT 8000 -SHRA BKN030 QNH2985INS
TEMPO 0320/0323 VRB15G25KT 4800 -TSRA BKN030CB TX30/0318Z TN25/0312Z LAST NO
AMDS AFT 0304 NEXT 0710

Example: see airport list